Detroit, Michigan
Traffic Map
Current Weather Conditions
Detroit, Michigan
Overcast Light Snow
Overcast
34°
Feels Like: 28°
Wind Chill: 28° Ceiling: 500
Heat Index: 34° Visibility: 3mi
Dew Point: 32° Wind: 7mph
Humidity: 93% Direction: 210° (SSW)
Pressure: 29.85in Gusts: 0mph
Raw Report DataCYQG 050300Z 21006KT 3SM -SN BR OVC005 01/00 A2985 RMK SF8 SLP114
Traffic Incident Summary
Active as of:
Severity:
Category:
InformationThere was an issue retrieving the traffic information for this location. Please try a different location or try again shortly.
Advertisements
Track Severe Weather on mobile